Time;durP1;ratioP1;P1;durP2;ratioP2;P2;SDS_P1;SDS_P2;PMS_P1;PMS_P2;Temp;Humidity;BMP_temperature;BMP_pressure;BME280_temperature;BME280_humidity;BME280_pressure;Samples;Min_cycle;Max_cycle;Signal;HPM_P1;HPM_P2
2023/06/28 00:00:32;;;;;;;17.20;16.10;;;13.20;99.90;;;;;;5069416;28;20471;-44
2023/06/28 00:03:00;;;;;;;17.97;16.77;;;13.10;99.90;;;;;;5069186;28;20181;-47
2023/06/28 00:05:26;;;;;;;17.30;16.20;;;13.10;99.90;;;;;;5069242;28;20173;-47
2023/06/28 00:07:51;;;;;;;18.07;16.97;;;13.10;99.90;;;;;;5069264;28;20477;-47
2023/06/28 00:10:17;;;;;;;17.97;16.57;;;13.10;99.90;;;;;;5069659;28;20718;-46
2023/06/28 00:12:42;;;;;;;18.07;16.67;;;13.10;99.90;;;;;;5069562;28;20266;-47
2023/06/28 00:15:08;;;;;;;19.00;17.60;;;13.10;99.90;;;;;;5069287;28;20295;-48
2023/06/28 00:17:34;;;;;;;18.13;16.87;;;13.10;99.90;;;;;;5069045;28;20630;-44
2023/06/28 00:20:06;;;;;;;19.00;17.70;;;13.20;99.90;;;;;;5069201;28;20558;-51
2023/06/28 00:22:32;;;;;;;19.23;17.83;;;13.20;99.90;;;;;;5069604;28;20686;-47
2023/06/28 00:24:59;;;;;;;19.70;18.27;;;13.20;99.90;;;;;;5069488;28;20932;-47
2023/06/28 00:27:25;;;;;;;19.33;18.03;;;13.20;99.90;;;;;;5068971;28;20432;-46
2023/06/28 00:29:51;;;;;;;18.97;17.67;;;13.20;99.90;;;;;;5069374;28;20438;-47
2023/06/28 00:32:17;;;;;;;19.57;18.17;;;13.20;99.90;;;;;;5068697;28;20897;-50
2023/06/28 00:34:42;;;;;;;18.80;17.60;;;13.20;99.90;;;;;;5068633;28;20181;-45
2023/06/28 00:37:08;;;;;;;19.60;18.20;;;13.30;99.90;;;;;;5068736;28;20673;-49
2023/06/28 00:39:34;;;;;;;20.33;18.60;;;13.30;99.90;;;;;;5068889;28;20201;-48
2023/06/28 00:42:00;;;;;;;19.97;18.57;;;13.30;99.90;;;;;;5068618;28;20173;-50
2023/06/28 00:44:26;;;;;;;19.70;18.30;;;13.30;99.90;;;;;;5068925;28;20412;-48
2023/06/28 00:46:54;;;;;;;20.30;18.80;;;13.40;99.90;;;;;;5068485;28;20423;-45
2023/06/28 00:49:20;;;;;;;19.77;18.27;;;13.40;99.90;;;;;;5068584;28;20632;-50
2023/06/28 00:51:46;;;;;;;20.63;18.73;;;13.40;99.90;;;;;;5068593;28;20419;-45
2023/06/28 00:54:12;;;;;;;18.93;17.73;;;13.30;99.90;;;;;;5068690;28;20773;-50
2023/06/28 00:56:38;;;;;;;20.20;18.77;;;13.30;99.90;;;;;;5068564;28;20415;-50
2023/06/28 00:59:05;;;;;;;19.13;17.93;;;13.30;99.90;;;;;;5068244;28;20182;-48
2023/06/28 01:01:31;;;;;;;19.77;18.17;;;13.30;99.90;;;;;;5068383;28;20440;-46
2023/06/28 01:03:57;;;;;;;19.37;18.07;;;13.20;99.90;;;;;;5068201;28;20462;-48
2023/06/28 01:06:25;;;;;;;19.87;18.53;;;13.20;99.90;;;;;;5068207;28;20505;-49
2023/06/28 01:08:52;;;;;;;20.10;18.50;;;13.10;99.90;;;;;;5068803;28;20801;-47
2023/06/28 01:11:19;;;;;;;19.63;18.23;;;13.10;99.90;;;;;;5068738;28;20503;-44
2023/06/28 01:13:46;;;;;;;19.67;18.27;;;13.10;99.90;;;;;;5068401;28;20476;-45
2023/06/28 01:16:12;;;;;;;19.20;17.90;;;13.00;99.90;;;;;;5067573;28;20787;-51
2023/06/28 01:18:38;;;;;;;19.20;17.80;;;13.00;99.90;;;;;;5068164;28;20840;-48
2023/06/28 01:21:07;;;;;;;19.40;17.90;;;13.00;99.90;;;;;;5068347;28;20523;-49
2023/06/28 01:23:33;;;;;;;19.83;18.30;;;13.00;99.90;;;;;;5068355;28;20264;-47
2023/06/28 01:26:02;;;;;;;19.20;17.80;;;12.90;99.90;;;;;;5068260;28;20419;-46
2023/06/28 01:28:31;;;;;;;24.20;18.07;;;12.90;99.90;;;;;;5068527;28;20424;-44
2023/06/28 01:30:59;;;;;;;19.57;18.27;;;12.90;99.90;;;;;;5068203;28;20415;-46
2023/06/28 01:33:26;;;;;;;19.40;18.00;;;12.90;99.90;;;;;;5050024;28;20488;-45
2023/06/28 01:35:52;;;;;;;19.87;18.17;;;12.90;99.90;;;;;;5068249;28;20426;-48
2023/06/28 01:38:19;;;;;;;19.87;18.37;;;12.80;99.90;;;;;;5067982;28;20419;-46
2023/06/28 01:40:48;;;;;;;20.13;18.53;;;12.90;99.90;;;;;;5068316;28;21020;-46
2023/06/28 01:43:14;;;;;;;19.40;17.90;;;12.80;99.90;;;;;;5068084;28;20419;-47
2023/06/28 01:45:40;;;;;;;20.10;18.57;;;12.80;99.90;;;;;;5068155;28;20480;-46
2023/06/28 01:48:05;;;;;;;19.47;18.07;;;12.80;99.90;;;;;;5067892;28;20173;-46
2023/06/28 01:50:31;;;;;;;20.00;18.53;;;12.80;99.90;;;;;;5068051;28;20197;-48
2023/06/28 01:52:59;;;;;;;19.40;17.73;;;12.90;99.90;;;;;;5068023;28;20424;-45
2023/06/28 01:55:25;;;;;;;19.23;17.90;;;12.90;99.90;;;;;;5068180;28;20208;-44
2023/06/28 01:57:51;;;;;;;19.97;18.23;;;12.90;99.90;;;;;;5049865;28;20419;-50
2023/06/28 02:00:17;;;;;;;19.80;18.20;;;12.80;99.90;;;;;;5067924;28;20614;-47
2023/06/28 02:02:42;;;;;;;19.13;17.33;;;12.90;99.90;;;;;;5067899;28;20181;-43
2023/06/28 02:05:08;;;;;;;19.93;18.43;;;12.80;99.90;;;;;;5067916;28;20501;-47
2023/06/28 02:07:34;;;;;;;19.23;17.77;;;12.80;99.90;;;;;;5067876;28;20225;-46
2023/06/28 02:09:59;;;;;;;18.20;16.90;;;12.80;99.90;;;;;;5069670;28;20445;-46
2023/06/28 02:12:25;;;;;;;19.00;17.70;;;12.80;99.90;;;;;;5071669;28;20553;-51
2023/06/28 02:14:52;;;;;;;18.97;17.67;;;12.80;99.90;;;;;;5071506;28;20192;-46
2023/06/28 02:17:20;;;;;;;19.80;18.20;;;12.80;99.90;;;;;;5071639;28;20200;-48
2023/06/28 02:19:47;;;;;;;19.20;17.90;;;12.80;99.90;;;;;;5071465;28;20552;-46
2023/06/28 02:22:13;;;;;;;19.53;18.13;;;12.80;99.90;;;;;;5071529;28;20415;-46
2023/06/28 02:24:39;;;;;;;20.47;18.80;;;12.80;99.90;;;;;;5071431;28;20415;-48
2023/06/28 02:27:05;;;;;;;19.60;18.10;;;12.80;99.90;;;;;;5071528;28;21004;-45
2023/06/28 02:29:30;;;;;;;19.20;17.90;;;12.90;99.90;;;;;;5071259;28;20239;-45
2023/06/28 02:31:56;;;;;;;19.77;18.10;;;12.90;99.90;;;;;;5071231;28;20177;-47
2023/06/28 02:34:22;;;;;;;19.00;17.60;;;13.00;99.90;;;;;;5070907;28;20178;-45
2023/06/28 02:36:48;;;;;;;20.03;18.57;;;13.00;99.90;;;;;;5071188;28;20823;-48
2023/06/28 02:39:13;;;;;;;19.30;17.90;;;13.00;99.90;;;;;;5071061;28;20416;-47
2023/06/28 02:41:39;;;;;;;19.50;18.10;;;13.00;99.90;;;;;;5070998;28;20216;-47
2023/06/28 02:44:04;;;;;;;19.47;17.77;;;13.10;99.90;;;;;;5071041;28;20655;-47
2023/06/28 02:46:30;;;;;;;18.40;17.03;;;13.10;99.90;;;;;;5071154;28;20185;-45
2023/06/28 02:48:56;;;;;;;19.40;18.00;;;13.10;99.90;;;;;;5071256;28;20184;-43
2023/06/28 02:51:21;;;;;;;18.37;16.97;;;13.10;99.90;;;;;;5070747;28;20239;-47
2023/06/28 02:53:47;;;;;;;19.40;18.00;;;13.10;99.90;;;;;;5070841;28;20185;-47
2023/06/28 02:56:13;;;;;;;18.93;17.50;;;13.10;99.90;;;;;;5070804;28;20639;-46
2023/06/28 02:58:39;;;;;;;19.27;17.53;;;13.10;99.90;;;;;;5070797;28;20467;-46
2023/06/28 03:01:04;;;;;;;19.20;17.63;;;13.20;99.90;;;;;;5070928;28;21235;-45
2023/06/28 03:03:33;;;;;;;16.47;15.37;;;13.20;99.90;;;;;;5071012;28;20184;-46
2023/06/28 03:05:59;;;;;;;18.87;17.13;;;13.20;99.90;;;;;;5070557;28;20589;-44
2023/06/28 03:08:24;;;;;;;18.07;16.77;;;13.20;99.90;;;;;;5070840;28;20829;-45
2023/06/28 03:10:50;;;;;;;19.30;18.00;;;13.20;99.90;;;;;;5070305;28;20415;-45
2023/06/28 03:13:16;;;;;;;18.33;17.03;;;13.20;99.90;;;;;;5070506;28;20196;-48
2023/06/28 03:15:41;;;;;;;18.87;17.43;;;13.20;99.90;;;;;;5070340;28;20694;-48
2023/06/28 03:18:07;;;;;;;18.10;16.80;;;13.20;99.90;;;;;;5070482;28;20234;-47
2023/06/28 03:20:32;;;;;;;18.50;17.30;;;13.20;99.90;;;;;;5069999;28;20200;-46
2023/06/28 03:22:58;;;;;;;19.63;17.83;;;13.20;99.90;;;;;;5070398;28;20185;-42
2023/06/28 03:25:24;;;;;;;17.93;16.63;;;13.20;99.90;;;;;;5070157;28;20188;-45
2023/06/28 03:27:49;;;;;;;18.80;17.50;;;13.20;99.90;;;;;;5070028;28;20736;-47
2023/06/28 03:30:15;;;;;;;19.10;17.70;;;13.20;99.90;;;;;;5070120;28;20264;-44
2023/06/28 03:32:41;;;;;;;18.93;17.43;;;13.10;99.90;;;;;;5070057;28;20652;-46
2023/06/28 03:35:07;;;;;;;18.93;17.53;;;13.20;99.90;;;;;;5069871;28;20430;-46
2023/06/28 03:37:33;;;;;;;17.57;16.17;;;13.20;99.90;;;;;;5069945;28;20185;-48
2023/06/28 03:39:59;;;;;;;18.50;17.30;;;13.20;99.90;;;;;;5069715;28;20545;-44
2023/06/28 03:42:25;;;;;;;19.00;17.50;;;13.30;99.90;;;;;;5070005;28;20511;-46
2023/06/28 03:44:50;;;;;;;18.60;17.10;;;13.30;99.90;;;;;;5070051;28;20196;-44
2023/06/28 03:47:16;;;;;;;18.77;17.23;;;13.30;99.90;;;;;;5070034;28;20193;-46
2023/06/28 03:49:42;;;;;;;18.17;16.87;;;13.20;99.90;;;;;;5069668;28;20181;-46
2023/06/28 03:52:07;;;;;;;18.67;17.40;;;13.30;99.90;;;;;;5069692;28;20562;-49
2023/06/28 03:54:33;;;;;;;17.27;16.07;;;13.30;99.90;;;;;;5069455;28;20705;-48
2023/06/28 03:56:59;;;;;;;19.03;17.60;;;13.30;99.90;;;;;;5069898;28;20192;-46
2023/06/28 03:59:24;;;;;;;18.10;16.70;;;13.30;99.90;;;;;;5069344;28;20194;-45
2023/06/28 04:01:50;;;;;;;17.73;16.50;;;13.30;99.90;;;;;;5069396;28;20181;-46
2023/06/28 04:04:16;;;;;;;17.20;15.80;;;13.40;99.90;;;;;;5069346;28;20185;-44
2023/06/28 04:06:42;;;;;;;16.90;15.60;;;13.50;99.90;;;;;;5069198;28;20235;-45
2023/06/28 04:09:08;;;;;;;17.03;15.83;;;13.50;99.90;;;;;;5069182;28;20427;-48
2023/06/28 04:11:34;;;;;;;17.30;15.90;;;13.70;99.90;;;;;;5069456;28;20188;-49
2023/06/28 04:14:00;;;;;;;18.03;16.63;;;13.60;99.90;;;;;;5069305;28;20998;-47
2023/06/28 04:16:26;;;;;;;17.60;16.07;;;13.70;99.90;;;;;;5051378;28;20455;-48
2023/06/28 04:18:54;;;;;;;17.40;16.10;;;13.80;99.90;;;;;;5069125;28;20181;-46
2023/06/28 04:21:20;;;;;;;18.27;16.57;;;13.80;99.90;;;;;;5069003;28;20270;-48
2023/06/28 04:23:45;;;;;;;16.97;15.63;;;13.90;99.90;;;;;;5068818;28;20419;-47
2023/06/28 04:26:11;;;;;;;18.00;16.60;;;13.90;99.90;;;;;;5069003;28;20268;-48
2023/06/28 04:28:36;;;;;;;18.23;15.87;;;13.90;99.90;;;;;;5069157;28;20181;-46
2023/06/28 04:31:02;;;;;;;17.20;15.90;;;14.00;99.90;;;;;;5069158;28;20613;-44
2023/06/28 04:33:29;;;;;;;18.50;16.53;;;14.10;99.90;;;;;;5069035;28;20627;-47
2023/06/28 04:35:56;;;;;;;18.57;16.93;;;14.00;99.90;;;;;;5069450;28;20205;-46
2023/06/28 04:38:23;;;;;;;19.20;17.30;;;14.00;99.90;;;;;;5050450;28;20432;-50
2023/06/28 04:40:49;;;;;;;16.60;15.47;;;14.10;99.90;;;;;;5068593;28;20550;-46
2023/06/28 04:43:15;;;;;;;16.43;15.30;;;14.20;99.90;;;;;;5068753;28;20472;-48
2023/06/28 04:45:41;;;;;;;16.67;15.37;;;14.20;99.90;;;;;;5068693;28;20481;-45
2023/06/28 04:48:07;;;;;;;20.00;15.67;;;14.20;99.90;;;;;;5068624;28;20421;-49
2023/06/28 04:50:36;;;;;;;16.90;15.87;;;14.30;99.90;;;;;;5068651;28;20430;-44
2023/06/28 04:53:05;;;;;;;15.07;14.07;;;14.40;99.90;;;;;;5068312;28;20477;-48
2023/06/28 04:55:34;;;;;;;16.20;15.10;;;14.60;99.90;;;;;;5069321;28;20510;-47
2023/06/28 04:58:04;;;;;;;15.50;14.60;;;14.60;99.90;;;;;;5068667;28;20427;-44
2023/06/28 05:00:31;;;;;;;15.67;14.43;;;14.70;99.90;;;;;;5068508;28;20466;-46
2023/06/28 05:02:57;;;;;;;15.90;14.80;;;14.80;99.90;;;;;;5068695;28;21053;-44
2023/06/28 05:05:26;;;;;;;15.27;14.17;;;14.90;99.90;;;;;;5068591;28;20991;-48
2023/06/28 05:07:55;;;;;;;15.17;14.27;;;15.00;99.90;;;;;;5068293;28;20427;-48
2023/06/28 05:10:22;;;;;;;15.13;14.13;;;15.00;99.90;;;;;;5068352;28;20419;-46
2023/06/28 05:12:50;;;;;;;16.13;15.10;;;15.00;99.90;;;;;;5068280;28;20703;-45
2023/06/28 05:15:16;;;;;;;15.13;14.13;;;15.00;99.90;;;;;;5068461;28;20415;-48
2023/06/28 05:17:42;;;;;;;15.60;14.43;;;15.10;99.90;;;;;;5068266;28;20821;-49
2023/06/28 05:20:08;;;;;;;14.70;13.70;;;15.20;99.90;;;;;;5068153;28;20893;-47
2023/06/28 05:22:34;;;;;;;15.53;14.63;;;15.30;99.90;;;;;;5068220;28;20892;-48
2023/06/28 05:25:00;;;;;;;15.57;14.40;;;15.30;99.90;;;;;;5068004;28;20419;-49
2023/06/28 05:27:25;;;;;;;16.23;15.03;;;15.30;99.90;;;;;;5068136;28;20635;-51
2023/06/28 05:29:51;;;;;;;16.00;14.90;;;15.40;99.90;;;;;;5068343;28;20196;-48
2023/06/28 05:32:18;;;;;;;16.30;15.00;;;15.30;99.90;;;;;;5068760;28;20300;-46
2023/06/28 05:34:43;;;;;;;15.47;14.53;;;15.10;99.90;;;;;;5068189;28;20554;-49
2023/06/28 05:37:09;;;;;;;15.50;14.57;;;15.10;99.90;;;;;;5067994;28;20427;-45
2023/06/28 05:39:35;;;;;;;15.03;14.03;;;15.10;99.90;;;;;;5049981;28;20216;-46
2023/06/28 05:42:00;;;;;;;15.60;14.23;;;15.10;99.90;;;;;;5067898;28;20635;-47
2023/06/28 05:44:26;;;;;;;14.70;13.90;;;15.10;99.90;;;;;;5069155;28;20188;-45
2023/06/28 05:46:52;;;;;;;13.63;12.83;;;15.00;99.90;;;;;;5072006;28;20185;-48
2023/06/28 05:49:18;;;;;;;15.10;14.10;;;15.00;99.90;;;;;;5071907;28;20173;-48
2023/06/28 05:51:44;;;;;;;15.67;14.77;;;15.00;99.90;;;;;;5071791;28;20890;-49
2023/06/28 05:54:10;;;;;;;15.07;13.90;;;15.00;99.90;;;;;;5053756;28;20438;-49
2023/06/28 05:56:35;;;;;;;14.63;13.83;;;15.00;99.90;;;;;;5071844;28;20415;-47
2023/06/28 05:59:01;;;;;;;15.03;14.03;;;15.00;99.90;;;;;;5071888;28;20184;-46
2023/06/28 06:01:27;;;;;;;14.40;13.60;;;15.10;99.90;;;;;;5071381;28;20205;-44
2023/06/28 06:03:53;;;;;;;15.40;14.40;;;15.10;99.90;;;;;;5071716;28;20465;-51
2023/06/28 06:06:19;;;;;;;15.30;14.30;;;15.10;99.90;;;;;;5071350;28;20459;-47
2023/06/28 06:08:45;;;;;;;15.40;14.40;;;15.20;99.90;;;;;;5071639;28;20223;-45
2023/06/28 06:11:10;;;;;;;15.17;14.17;;;15.30;99.90;;;;;;5071451;28;20498;-47
2023/06/28 06:13:36;;;;;;;16.30;15.20;;;15.40;99.90;;;;;;5071794;28;20559;-47
2023/06/28 06:16:01;;;;;;;15.70;14.80;;;15.40;99.90;;;;;;5071609;28;20189;-48
2023/06/28 06:18:28;;;;;;;16.47;15.33;;;15.50;99.90;;;;;;5071414;28;20692;-50
2023/06/28 06:20:53;;;;;;;15.73;14.93;;;15.60;99.90;;;;;;5071557;28;20207;-47
2023/06/28 06:23:19;;;;;;;15.73;14.67;;;15.60;99.90;;;;;;5071485;28;20420;-48
2023/06/28 06:25:45;;;;;;;15.87;14.60;;;15.80;99.90;;;;;;5053139;28;20271;-47
2023/06/28 06:28:11;;;;;;;15.37;14.47;;;15.80;99.90;;;;;;5071365;28;20611;-46
2023/06/28 06:30:36;;;;;;;16.00;14.90;;;16.00;99.90;;;;;;5071171;28;20191;-46
2023/06/28 06:33:02;;;;;;;14.57;13.77;;;16.10;99.90;;;;;;5071013;28;20189;-48
2023/06/28 06:35:28;;;;;;;15.00;14.20;;;16.30;99.90;;;;;;5071138;28;20192;-46
2023/06/28 06:37:54;;;;;;;14.60;13.80;;;16.40;99.90;;;;;;5071024;28;20216;-51
2023/06/28 06:40:20;;;;;;;15.70;14.70;;;16.70;99.90;;;;;;5070837;28;20204;-49
2023/06/28 06:42:46;;;;;;;15.30;14.40;;;16.90;99.90;;;;;;5071294;28;20450;-50
2023/06/28 06:45:17;;;;;;;14.23;13.30;;;17.00;99.90;;;;;;5070916;28;20415;-50
2023/06/28 06:47:44;;;;;;;13.63;12.93;;;17.20;99.90;;;;;;5070874;28;20495;-48
2023/06/28 06:50:11;;;;;;;13.93;13.13;;;17.30;99.90;;;;;;5071061;28;20770;-48
2023/06/28 06:52:37;;;;;;;13.67;12.97;;;17.40;99.90;;;;;;5071084;28;20423;-51
2023/06/28 06:55:04;;;;;;;13.80;13.00;;;17.40;99.90;;;;;;5070565;28;20430;-46
2023/06/28 06:57:30;;;;;;;13.30;12.60;;;17.50;99.90;;;;;;5070983;28;20427;-47
2023/06/28 06:59:55;;;;;;;15.10;14.00;;;17.70;99.90;;;;;;5070604;28;20451;-49
2023/06/28 07:02:21;;;;;;;14.20;13.30;;;17.80;99.90;;;;;;5070566;28;20184;-52
2023/06/28 07:04:48;;;;;;;13.87;13.03;;;17.90;99.90;;;;;;5070634;28;20188;-54
2023/06/28 07:07:14;;;;;;;13.13;12.43;;;17.70;99.90;;;;;;5070461;28;20462;-50
2023/06/28 07:09:39;;;;;;;12.80;12.20;;;17.80;99.90;;;;;;5070490;28;20473;-48
2023/06/28 07:12:05;;;;;;;13.63;12.90;;;17.90;99.90;;;;;;5070392;28;20259;-47
2023/06/28 07:14:31;;;;;;;13.67;12.83;;;17.80;99.90;;;;;;5070532;28;20568;-47
2023/06/28 07:16:56;;;;;;;13.50;12.70;;;17.90;99.90;;;;;;5070614;28;20423;-49
2023/06/28 07:19:22;;;;;;;12.77;12.17;;;18.00;99.90;;;;;;5070350;28;20197;-46
2023/06/28 07:21:48;;;;;;;14.00;13.30;;;18.00;99.90;;;;;;5070313;28;20196;-46
2023/06/28 07:24:13;;;;;;;14.40;13.30;;;18.20;99.90;;;;;;5070223;28;20189;-47
2023/06/28 07:26:39;;;;;;;13.90;13.10;;;18.20;99.90;;;;;;5070164;28;20246;-49
2023/06/28 07:29:04;;;;;;;14.13;13.33;;;18.20;99.90;;;;;;5070170;28;20181;-49
2023/06/28 07:31:30;;;;;;;14.13;13.43;;;18.10;99.90;;;;;;5070043;28;20275;-50
2023/06/28 07:33:56;;;;;;;14.17;13.37;;;18.10;99.90;;;;;;5070196;28;20311;-52
2023/06/28 07:36:22;;;;;;;13.80;13.00;;;18.00;99.90;;;;;;5069907;28;20713;-51
2023/06/28 07:38:49;;;;;;;14.50;13.70;;;17.80;99.90;;;;;;5070010;28;20435;-48
2023/06/28 07:41:15;;;;;;;14.67;13.67;;;17.80;99.90;;;;;;5069736;28;20205;-49
2023/06/28 07:43:41;;;;;;;14.43;13.63;;;17.80;99.90;;;;;;5070162;28;20427;-50
2023/06/28 07:46:06;;;;;;;14.60;13.80;;;17.70;99.90;;;;;;5070129;28;20416;-51
2023/06/28 07:48:32;;;;;;;14.40;13.57;;;17.70;99.90;;;;;;5069595;28;20235;-47
2023/06/28 07:50:57;;;;;;;14.73;13.73;;;17.70;99.90;;;;;;5069784;28;20189;-46
2023/06/28 07:53:23;;;;;;;13.93;13.13;;;17.60;99.90;;;;;;5069548;28;20212;-48
2023/06/28 07:55:49;;;;;;;13.87;13.27;;;17.60;99.90;;;;;;5051729;28;20219;-50
2023/06/28 07:58:15;;;;;;;13.93;13.23;;;17.70;99.90;;;;;;5069858;28;20537;-50
2023/06/28 08:00:40;;;;;;;14.07;13.37;;;17.70;99.90;;;;;;5070107;28;20226;-52
2023/06/28 08:03:06;;;;;;;14.13;13.33;;;17.80;99.90;;;;;;5069540;28;20185;-48
2023/06/28 08:05:31;;;;;;;13.97;13.07;;;18.10;99.90;;;;;;5069114;28;20247;-47
2023/06/28 08:07:57;;;;;;;14.83;13.90;;;18.40;99.90;;;;;;5068541;28;20189;-45
2023/06/28 08:10:25;;;;;;;13.77;12.97;;;18.50;99.90;;;;;;5069494;28;20220;-49
2023/06/28 08:12:51;;;;;;;14.33;13.63;;;18.60;99.90;;;;;;5069073;28;20610;-51
2023/06/28 08:15:18;;;;;;;13.80;12.97;;;18.70;99.90;;;;;;5069296;28;20439;-49
2023/06/28 08:17:43;;;;;;;13.30;12.50;;;18.60;99.90;;;;;;5069084;28;20419;-48
2023/06/28 08:20:09;;;;;;;13.90;13.10;;;18.70;99.90;;;;;;5069106;28;20516;-52
2023/06/28 08:22:35;;;;;;;14.20;13.40;;;18.90;99.90;;;;;;5069084;28;20181;-50
2023/06/28 08:25:00;;;;;;;13.70;12.77;;;19.10;99.90;;;;;;5069182;28;20189;-48
2023/06/28 08:27:26;;;;;;;13.30;12.67;;;19.30;99.90;;;;;;5068752;28;20208;-46
2023/06/28 08:29:52;;;;;;;13.50;12.90;;;19.40;99.90;;;;;;5068971;28;20266;-47
2023/06/28 08:32:17;;;;;;;13.90;13.10;;;19.50;98.10;;;;;;5068790;28;20228;-47
2023/06/28 08:34:43;;;;;;;13.73;13.00;;;19.50;97.80;;;;;;5068945;28;20271;-47
2023/06/28 08:37:09;;;;;;;13.97;13.27;;;19.50;99.90;;;;;;5068756;28;20744;-49
2023/06/28 08:39:36;;;;;;;13.43;12.73;;;19.60;96.80;;;;;;5068833;28;20651;-46
2023/06/28 08:42:02;;;;;;;13.53;12.83;;;19.80;98.40;;;;;;5069123;28;20697;-51
2023/06/28 08:44:31;;;;;;;13.97;13.03;;;20.10;98.00;;;;;;5068924;28;20428;-52
2023/06/28 08:46:58;;;;;;;14.07;13.33;;;20.30;94.50;;;;;;5069126;28;20659;-46
2023/06/28 08:49:24;;;;;;;13.07;12.37;;;20.50;93.00;;;;;;5068855;28;20958;-49
2023/06/28 08:51:50;;;;;;;14.87;13.97;;;20.50;93.80;;;;;;5068688;28;20455;-49
2023/06/28 08:54:15;;;;;;;14.47;13.73;;;20.60;93.90;;;;;;5068741;28;20915;-50
2023/06/28 08:56:41;;;;;;;13.47;12.77;;;20.70;92.60;;;;;;5068849;28;20185;-52
2023/06/28 08:59:08;;;;;;;13.77;13.00;;;20.40;94.50;;;;;;5068453;28;20185;-49
2023/06/28 09:01:35;;;;;;;12.40;11.73;;;20.20;93.80;;;;;;5068723;28;20209;-48
2023/06/28 09:04:06;;;;;;;12.67;11.90;;;20.10;92.40;;;;;;5050530;28;20423;-52
2023/06/28 09:06:33;;;;;;;13.30;12.60;;;20.20;93.00;;;;;;5068443;28;20555;-49
2023/06/28 09:08:59;;;;;;;13.90;13.13;;;20.40;94.20;;;;;;5068400;28;20425;-47
2023/06/28 09:11:26;;;;;;;12.70;12.10;;;20.60;93.10;;;;;;5068489;28;20488;-47
2023/06/28 09:13:53;;;;;;;13.13;12.33;;;20.90;92.40;;;;;;5068466;28;20424;-49
2023/06/28 09:16:20;;;;;;;12.93;12.30;;;20.90;91.30;;;;;;5068791;28;20453;-51
2023/06/28 09:18:46;;;;;;;13.10;12.40;;;20.70;91.10;;;;;;5068562;28;21006;-46
2023/06/28 09:21:24;;;;;;;13.00;12.30;;;20.50;92.00;;;;;;5068830;28;20761;-46
2023/06/28 09:23:49;;;;;;;12.60;11.90;;;20.90;93.50;;;;;;5068033;28;20518;-48
2023/06/28 09:26:15;;;;;;;12.93;12.30;;;21.20;91.00;;;;;;5068679;28;20494;-48
2023/06/28 09:28:40;;;;;;;13.20;12.10;;;21.30;84.50;;;;;;5068027;28;20204;-48
2023/06/28 09:31:08;;;;;;;12.50;11.90;;;21.20;79.20;;;;;;5068675;28;20240;-48
2023/06/28 09:33:34;;;;;;;13.30;12.70;;;21.00;86.80;;;;;;5068116;28;20531;-49
2023/06/28 09:36:02;;;;;;;12.10;11.60;;;21.00;88.00;;;;;;5068085;28;20484;-47
2023/06/28 09:38:27;;;;;;;13.57;12.77;;;21.30;89.70;;;;;;5068064;28;20196;-51
2023/06/28 09:44:29;;;;;;;13.03;12.43;;;22.20;80.30;;;;;;5068290;28;20394;-48
2023/06/28 09:47:03;;;;;;;13.07;12.37;;;22.10;80.60;;;;;;5068055;28;20419;-48
2023/06/28 09:49:29;;;;;;;12.40;11.80;;;22.10;76.70;;;;;;5067883;28;20474;-48
2023/06/28 09:51:58;;;;;;;12.90;12.20;;;22.10;82.30;;;;;;5068074;28;20504;-50
2023/06/28 09:54:32;;;;;;;13.43;12.63;;;22.50;75.50;;;;;;5068284;28;20307;-43
2023/06/28 09:56:59;;;;;;;12.70;12.00;;;22.80;71.20;;;;;;5068161;28;20473;-50
2023/06/28 09:59:29;;;;;;;12.37;11.77;;;23.40;72.90;;;;;;5067559;28;20471;-50
2023/06/28 10:01:58;;;;;;;12.03;11.43;;;24.10;70.70;;;;;;5068071;28;20415;-47
2023/06/28 10:04:26;;;;;;;13.43;12.43;;;24.80;65.10;;;;;;5067902;28;20416;-53
2023/06/28 10:06:52;;;;;;;12.53;11.70;;;24.70;57.10;;;;;;5067787;28;20467;-51
2023/06/28 10:09:19;;;;;;;11.97;11.17;;;24.50;57.50;;;;;;5067869;28;20497;-50
2023/06/28 10:11:47;;;;;;;11.90;11.40;;;24.20;58.00;;;;;;5067846;28;20420;-53
2023/06/28 10:14:14;;;;;;;12.90;12.10;;;23.80;59.80;;;;;;5068123;28;20447;-48
2023/06/28 10:16:41;;;;;;;12.30;11.70;;;24.10;59.00;;;;;;5067986;28;20459;-47
2023/06/28 10:19:09;;;;;;;12.50;11.80;;;24.60;59.60;;;;;;5067769;28;20913;-48
2023/06/28 10:21:36;;;;;;;12.13;11.57;;;25.00;55.80;;;;;;5068109;28;20582;-49
2023/06/28 10:24:03;;;;;;;12.40;11.70;;;25.00;54.80;;;;;;5067664;28;20415;-48
2023/06/28 10:26:30;;;;;;;12.40;11.80;;;24.60;54.40;;;;;;5067710;28;20419;-50
2023/06/28 10:28:57;;;;;;;12.80;12.20;;;24.70;55.20;;;;;;5067655;28;20439;-51
2023/06/28 10:31:23;;;;;;;12.40;11.80;;;24.90;55.90;;;;;;5069723;28;20468;-50
2023/06/28 10:33:50;;;;;;;11.70;11.10;;;25.50;56.00;;;;;;5071156;28;20424;-48
2023/06/28 10:36:16;;;;;;;12.40;11.90;;;26.30;52.10;;;;;;5071262;28;20427;-51
2023/06/28 10:38:45;;;;;;;12.40;11.90;;;26.40;47.70;;;;;;5070975;28;20470;-46
2023/06/28 10:41:17;;;;;;;11.90;11.30;;;25.80;47.60;;;;;;5071162;28;20478;-50
2023/06/28 10:43:44;;;;;;;12.20;11.70;;;25.10;46.70;;;;;;5071134;28;20921;-49
2023/06/28 10:46:24;;;;;;;11.70;11.10;;;24.70;47.00;;;;;;5070913;28;20407;-49
2023/06/28 10:49:03;;;;;;;12.37;11.87;;;25.20;48.10;;;;;;5070948;28;20415;-51
2023/06/28 10:51:34;;;;;;;11.83;11.30;;;25.90;46.00;;;;;;5071051;28;20492;-51
2023/06/28 10:54:13;;;;;;;11.77;11.07;;;26.70;47.20;;;;;;5070880;28;20457;-52
2023/06/28 10:56:50;;;;;;;12.30;11.53;;;27.40;43.70;;;;;;5070927;28;20481;-49
2023/06/28 10:59:15;;;;;;;13.57;12.87;;;27.20;42.40;;;;;;5070785;28;20454;-50
2023/06/28 11:02:01;;;;;;;12.60;12.10;;;27.00;44.30;;;;;;5070379;28;20459;-51
2023/06/28 11:04:27;;;;;;;12.60;11.93;;;26.40;40.80;;;;;;5070176;28;20236;-48
2023/06/28 11:07:16;;;;;;;12.00;11.47;;;25.70;42.20;;;;;;5071068;28;20534;-49
2023/06/28 11:10:17;;;;;;;11.50;11.00;;;25.40;44.20;;;;;;5070846;28;20652;-53
2023/06/28 11:12:47;;;;;;;11.23;10.73;;;25.70;43.80;;;;;;5070646;28;20450;-48
2023/06/28 11:15:13;;;;;;;12.17;11.50;;;26.30;43.10;;;;;;5070582;28;21000;-49
2023/06/28 11:17:39;;;;;;;12.60;11.90;;;26.90;40.90;;;;;;5070250;28;20419;-50
2023/06/28 11:20:07;;;;;;;11.43;11.03;;;27.40;40.80;;;;;;5070327;28;20759;-48
2023/06/28 11:22:53;;;;;;;11.93;11.33;;;27.60;40.90;;;;;;5070616;28;20969;-54
2023/06/28 11:25:28;;;;;;;11.40;10.80;;;28.20;39.10;;;;;;5070181;28;20979;-49
2023/06/28 11:27:57;;;;;;;12.37;11.77;;;28.20;36.70;;;;;;5070689;28;20854;-47
2023/06/28 11:30:46;;;;;;;13.30;12.40;;;27.40;34.80;;;;;;5070021;28;20415;-48
2023/06/28 11:33:12;;;;;;;12.13;11.63;;;26.30;39.40;;;;;;5069983;28;20407;-47
2023/06/28 11:35:38;;;;;;;13.03;12.43;;;26.60;41.10;;;;;;5057036;28;20897;-51
2023/06/28 11:38:04;;;;;;;11.63;11.07;;;26.60;39.20;;;;;;5070272;28;20427;-47
2023/06/28 11:40:30;;;;;;;12.50;11.90;;;27.10;40.20;;;;;;5070273;28;20467;-50
2023/06/28 11:42:56;;;;;;;12.27;11.73;;;28.00;38.30;;;;;;5069198;28;20538;-43
2023/06/28 11:45:22;;;;;;;12.07;11.40;;;28.60;34.80;;;;;;5069755;28;20445;-47
2023/06/28 11:47:48;;;;;;;12.27;11.77;;;28.90;34.50;;;;;;5069843;28;20239;-48
2023/06/28 11:50:14;;;;;;;11.93;11.33;;;28.70;34.50;;;;;;5069990;28;20564;-47
2023/06/28 11:52:46;;;;;;;11.63;11.13;;;28.30;34.40;;;;;;5069829;28;20423;-48
2023/06/28 11:55:14;;;;;;;12.17;11.57;;;27.80;36.90;;;;;;5069977;28;20904;-52
2023/06/28 11:57:45;;;;;;;11.83;11.13;;;27.80;35.50;;;;;;5069788;28;20454;-48
2023/06/28 12:00:15;;;;;;;11.67;11.17;;;27.50;33.60;;;;;;5069420;28;21135;-53
2023/06/28 12:02:50;;;;;;;12.10;11.60;;;27.80;33.60;;;;;;5051457;28;20449;-52
2023/06/28 12:05:17;;;;;;;11.20;10.70;;;28.50;35.60;;;;;;5069708;28;20917;-46
2023/06/28 12:07:46;;;;;;;12.50;11.90;;;29.30;34.40;;;;;;5069343;28;20474;-49
2023/06/28 12:10:12;;;;;;;12.40;11.90;;;30.20;32.70;;;;;;5051302;28;20573;-49
2023/06/28 12:12:41;;;;;;;11.57;11.07;;;29.70;29.50;;;;;;5069209;28;20530;-47
2023/06/28 12:15:12;;;;;;;12.10;11.43;;;29.80;30.80;;;;;;5069381;28;20189;-51
2023/06/28 12:17:43;;;;;;;11.57;10.80;;;29.40;31.90;;;;;;5069515;28;20833;-47
2023/06/28 12:20:11;;;;;;;12.20;11.50;;;29.30;32.70;;;;;;5069139;28;20493;-50
2023/06/28 12:22:41;;;;;;;11.07;10.47;;;29.70;30.10;;;;;;5069202;28;20423;-47
2023/06/28 12:25:06;;;;;;;11.73;11.23;;;30.00;29.10;;;;;;5068945;28;20423;-48
2023/06/28 12:27:32;;;;;;;11.37;10.70;;;30.00;31.10;;;;;;5069084;28;20502;-48
2023/06/28 12:29:58;;;;;;;11.90;11.30;;;30.00;29.70;;;;;;5068891;28;20203;-49